createdAt,value
2022-11-08T00:00:01.489Z,16.95
2022-11-08T00:02:28.669Z,16.73
2022-11-08T00:04:55.836Z,15.95
2022-11-08T00:07:41.133Z,15.48
2022-11-08T00:10:27.104Z,16.00
2022-11-08T00:13:12.810Z,14.70
2022-11-08T00:15:39.791Z,14.50
2022-11-08T00:18:07.932Z,14.65
2022-11-08T00:20:35.421Z,15.57
2022-11-08T00:23:03.964Z,16.40
2022-11-08T00:25:31.113Z,16.90
2022-11-08T00:27:58.104Z,21.52
2022-11-08T00:30:25.096Z,23.08
2022-11-08T00:32:52.110Z,23.13
2022-11-08T00:35:19.143Z,21.35
2022-11-08T00:37:46.130Z,22.95
2022-11-08T00:40:13.281Z,21.15
2022-11-08T00:42:40.635Z,25.80
2022-11-08T00:45:08.081Z,26.73
2022-11-08T00:47:35.057Z,22.98
2022-11-08T00:50:02.051Z,21.98
2022-11-08T00:52:29.029Z,24.48
2022-11-08T00:54:55.994Z,24.45
2022-11-08T00:57:40.864Z,23.15
2022-11-08T01:00:10.597Z,23.45
2022-11-08T01:02:37.688Z,23.27
2022-11-08T01:05:05.066Z,24.42
2022-11-08T01:07:32.068Z,24.58
2022-11-08T01:09:59.087Z,23.50
2022-11-08T01:12:26.088Z,23.25
2022-11-08T01:14:54.376Z,21.48
2022-11-08T01:17:22.107Z,21.75
2022-11-08T01:19:50.673Z,22.42
2022-11-08T01:22:18.292Z,19.27
2022-11-08T01:24:46.910Z,21.92
2022-11-08T01:27:21.309Z,20.33
2022-11-08T01:30:22.038Z,20.40
2022-11-08T01:33:14.701Z,16.85
2022-11-08T01:36:19.712Z,20.30
2022-11-08T01:39:18.567Z,21.05
2022-11-08T01:42:41.591Z,21.13
2022-11-08T01:45:57.259Z,18.95
2022-11-08T01:52:03.603Z,19.95
2022-11-08T01:58:25.944Z,17.13
2022-11-08T02:01:06.129Z,13.75
2022-11-08T02:12:28.187Z,12.70
2022-11-08T02:14:56.179Z,12.80
2022-11-08T02:17:23.959Z,13.05
2022-11-08T02:19:52.441Z,13.73
2022-11-08T02:22:38.866Z,15.13
2022-11-08T02:25:06.967Z,17.50
2022-11-08T02:27:33.923Z,18.35
2022-11-08T02:30:00.994Z,18.13
2022-11-08T02:32:41.099Z,17.42
2022-11-08T02:35:19.732Z,17.30
2022-11-08T02:37:48.049Z,16.00
2022-11-08T02:40:15.075Z,17.65
2022-11-08T02:42:42.198Z,16.42
2022-11-08T02:45:09.733Z,16.33
2022-11-08T02:47:36.713Z,14.88
2022-11-08T02:50:04.109Z,16.35
2022-11-08T02:52:31.116Z,15.18
2022-11-08T02:54:58.106Z,14.63
2022-11-08T02:57:25.113Z,15.20
2022-11-08T02:59:52.148Z,14.55
2022-11-08T03:02:19.181Z,13.00
2022-11-08T03:04:50.423Z,14.50
2022-11-08T03:07:22.141Z,16.58
2022-11-08T03:09:51.599Z,17.05
2022-11-08T03:12:20.279Z,17.58
2022-11-08T03:14:47.278Z,17.00
2022-11-08T03:17:14.528Z,15.25
2022-11-08T03:19:41.540Z,13.57
2022-11-08T03:22:08.607Z,14.15
2022-11-08T03:24:35.612Z,13.50
2022-11-08T03:27:03.021Z,13.15
2022-11-08T03:29:30.004Z,13.13
2022-11-08T03:31:57.011Z,13.10
2022-11-08T03:34:23.973Z,11.57
2022-11-08T03:36:51.050Z,10.80
2022-11-08T03:39:18.121Z,11.10
2022-11-08T03:41:45.068Z,10.63
2022-11-08T03:44:12.012Z,9.63
2022-11-08T03:46:39.022Z,9.85
2022-11-08T03:49:05.996Z,9.75
2022-11-08T03:51:33.040Z,9.80
2022-11-08T03:54:00.076Z,9.32
2022-11-08T03:56:27.379Z,9.52
2022-11-08T03:58:54.381Z,10.07
2022-11-08T04:01:21.444Z,9.25
2022-11-08T04:03:48.436Z,9.20
2022-11-08T04:06:15.474Z,9.50
2022-11-08T04:08:42.491Z,10.18
2022-11-08T04:11:32.468Z,12.77
2022-11-08T04:14:25.786Z,11.43
2022-11-08T04:16:52.781Z,11.25
2022-11-08T04:19:38.223Z,12.75
2022-11-08T04:22:06.457Z,12.45
2022-11-08T04:24:33.560Z,12.23
2022-11-08T04:27:01.688Z,13.10
2022-11-08T04:29:29.162Z,12.82
2022-11-08T04:31:56.171Z,13.95
2022-11-08T04:34:23.311Z,13.38
2022-11-08T04:36:50.523Z,14.18
2022-11-08T04:39:17.646Z,13.73
2022-11-08T04:41:44.681Z,14.00
2022-11-08T04:44:11.955Z,15.90
2022-11-08T04:46:38.924Z,14.02
2022-11-08T04:49:05.943Z,13.90
2022-11-08T04:51:33.825Z,13.20
2022-11-08T04:54:02.737Z,14.50
2022-11-08T04:56:30.960Z,13.52
2022-11-08T04:58:59.829Z,15.02
2022-11-08T05:01:30.062Z,15.05
2022-11-08T05:03:58.449Z,14.05
2022-11-08T05:06:27.781Z,14.25
2022-11-08T05:08:56.520Z,14.32
2022-11-08T05:11:25.795Z,13.50
2022-11-08T05:13:53.160Z,12.77
2022-11-08T05:16:23.333Z,13.02
2022-11-08T05:18:51.662Z,12.70
2022-11-08T05:21:40.902Z,13.98
2022-11-08T05:24:11.435Z,13.98
2022-11-08T05:26:40.515Z,12.65
2022-11-08T05:29:07.507Z,12.70
2022-11-08T05:31:35.035Z,13.40
2022-11-08T05:34:02.253Z,13.88
2022-11-08T05:36:29.884Z,13.63
2022-11-08T05:38:57.236Z,12.98
2022-11-08T05:41:25.431Z,13.05
2022-11-08T05:43:54.328Z,13.00
2022-11-08T05:46:22.814Z,12.07
2022-11-08T05:48:50.323Z,14.07
2022-11-08T05:51:19.077Z,13.95
2022-11-08T05:53:47.352Z,15.63
2022-11-08T05:56:14.725Z,15.20
2022-11-08T05:58:47.848Z,14.63
2022-11-08T06:01:17.660Z,15.40
2022-11-08T06:03:45.553Z,15.45
2022-11-08T06:06:18.305Z,14.88
2022-11-08T06:08:50.025Z,14.40
2022-11-08T06:11:23.473Z,14.00
2022-11-08T06:13:50.993Z,11.35
2022-11-08T06:16:19.512Z,14.65
2022-11-08T06:18:47.299Z,13.23
2022-11-08T06:21:16.710Z,13.43
2022-11-08T06:23:43.865Z,14.75
2022-11-08T06:26:11.257Z,13.32
2022-11-08T06:28:38.579Z,13.30
2022-11-08T06:31:05.845Z,13.50
2022-11-08T06:33:33.462Z,13.85
2022-11-08T06:36:00.839Z,15.00
2022-11-08T06:38:27.890Z,13.55
2022-11-08T06:40:55.034Z,15.05
2022-11-08T06:43:22.407Z,15.13
2022-11-08T06:45:49.823Z,17.15
2022-11-08T06:48:16.873Z,20.20
2022-11-08T06:50:44.367Z,19.80
2022-11-08T06:53:13.545Z,19.77
2022-11-08T06:55:41.290Z,18.73
2022-11-08T06:58:08.307Z,19.90
2022-11-08T07:00:35.390Z,18.55
2022-11-08T07:03:04.036Z,18.75
2022-11-08T07:05:33.057Z,18.25
2022-11-08T07:08:00.979Z,16.73
2022-11-08T07:10:30.812Z,16.85
2022-11-08T07:13:10.078Z,18.48
2022-11-08T07:15:37.798Z,17.73
2022-11-08T07:18:07.507Z,19.13
2022-11-08T07:20:35.280Z,19.05
2022-11-08T07:23:02.609Z,19.38
2022-11-08T07:25:30.720Z,20.33
2022-11-08T07:28:00.040Z,19.55
2022-11-08T07:30:28.353Z,18.50
2022-11-08T07:32:56.388Z,17.65
2022-11-08T07:35:23.898Z,19.40
2022-11-08T07:37:51.209Z,20.95
2022-11-08T07:40:18.365Z,23.98
2022-11-08T07:43:10.035Z,22.20
2022-11-08T07:45:33.032Z,23.35
2022-11-08T07:48:04.302Z,24.02
2022-11-08T07:50:34.086Z,20.85
2022-11-08T07:53:01.049Z,22.95
2022-11-08T07:55:28.219Z,23.17
2022-11-08T07:58:02.563Z,22.33
2022-11-08T08:00:36.594Z,20.77
2022-11-08T08:03:05.509Z,23.05
2022-11-08T08:05:36.311Z,22.38
2022-11-08T08:08:04.018Z,21.63
2022-11-08T08:10:31.785Z,20.52
2022-11-08T08:12:58.792Z,18.33
2022-11-08T08:15:26.174Z,20.27
2022-11-08T08:17:53.283Z,16.77
2022-11-08T08:20:20.264Z,18.55
2022-11-08T08:22:49.058Z,18.73
2022-11-08T08:25:17.083Z,19.55
2022-11-08T08:27:52.072Z,22.63
2022-11-08T08:30:19.974Z,21.77
2022-11-08T08:32:57.688Z,24.67
2022-11-08T08:35:36.471Z,22.48
2022-11-08T08:38:04.713Z,26.65
2022-11-08T08:40:32.553Z,26.23
2022-11-08T08:43:01.209Z,30.42
2022-11-08T08:45:29.134Z,25.63
2022-11-08T08:47:57.643Z,26.90
2022-11-08T08:50:26.124Z,28.13
2022-11-08T08:52:57.259Z,27.75
2022-11-08T08:55:24.273Z,26.58
2022-11-08T08:57:51.265Z,29.30
2022-11-08T09:03:07.799Z,26.52
2022-11-08T09:05:35.548Z,27.20
2022-11-08T09:08:02.532Z,27.45
2022-11-08T09:10:29.954Z,25.35
2022-11-08T09:12:56.959Z,21.20
2022-11-08T09:15:24.016Z,19.58
2022-11-08T09:17:54.540Z,14.07
2022-11-08T09:20:22.065Z,12.13
2022-11-08T09:22:49.343Z,13.48
2022-11-08T09:25:16.343Z,14.80
2022-11-08T09:27:43.330Z,17.52
2022-11-08T09:30:10.760Z,21.67
2022-11-08T09:35:25.657Z,20.90
2022-11-08T09:37:55.907Z,20.48
2022-11-08T09:40:31.763Z,20.63
2022-11-08T09:43:26.240Z,23.58
2022-11-08T09:45:56.144Z,22.98
2022-11-08T09:48:26.840Z,20.88
2022-11-08T09:50:55.252Z,21.85
2022-11-08T09:53:52.661Z,20.30
2022-11-08T09:56:27.884Z,20.00
2022-11-08T09:59:08.694Z,21.17
2022-11-08T10:01:37.379Z,19.10
2022-11-08T10:04:15.218Z,15.85
2022-11-08T10:07:08.344Z,18.38
2022-11-08T10:09:47.344Z,18.50
2022-11-08T10:12:35.145Z,18.52
2022-11-08T10:15:07.668Z,18.15
2022-11-08T10:18:03.961Z,14.88
2022-11-08T10:20:52.885Z,15.20
2022-11-08T10:23:21.715Z,14.63
2022-11-08T10:26:27.262Z,14.50
2022-11-08T10:29:07.704Z,16.08
2022-11-08T10:31:38.390Z,15.45
2022-11-08T10:34:15.103Z,19.35
2022-11-08T10:36:46.110Z,18.00
2022-11-08T10:39:26.226Z,16.20
2022-11-08T10:42:16.567Z,17.88
2022-11-08T10:44:44.255Z,8.35
2022-11-08T10:47:23.565Z,8.60
2022-11-08T10:49:50.783Z,8.25
2022-11-08T10:52:21.024Z,9.60
2022-11-08T10:54:59.112Z,9.73
2022-11-08T10:57:31.973Z,10.05
2022-11-08T11:02:46.638Z,10.68
2022-11-08T11:05:16.685Z,10.63
2022-11-08T11:07:57.643Z,10.30
2022-11-08T11:10:30.853Z,9.52
2022-11-08T11:13:12.146Z,8.73
2022-11-08T11:15:58.686Z,8.20
2022-11-08T11:18:37.909Z,8.27
2022-11-08T11:21:04.926Z,8.60
2022-11-08T11:23:39.921Z,8.43
2022-11-08T11:26:16.787Z,10.30
2022-11-08T11:29:08.468Z,10.82
2022-11-08T11:31:36.752Z,10.00
2022-11-08T11:34:24.687Z,9.73
2022-11-08T11:37:10.803Z,9.75
2022-11-08T11:39:49.656Z,8.45
2022-11-08T11:45:28.207Z,8.85
2022-11-08T11:48:02.679Z,7.88
2022-11-08T11:50:34.514Z,8.10
2022-11-08T11:53:05.850Z,7.85
2022-11-08T11:56:05.041Z,7.55
2022-11-08T11:58:38.067Z,7.25
2022-11-08T12:01:26.208Z,6.97
2022-11-08T12:04:21.834Z,7.72
2022-11-08T12:07:07.472Z,7.63
2022-11-08T12:09:55.669Z,7.72
2022-11-08T12:13:00.008Z,7.38
2022-11-08T12:16:07.510Z,7.70
2022-11-08T12:18:53.634Z,8.45
2022-11-08T12:21:23.659Z,5.75
2022-11-08T12:24:28.020Z,5.93
2022-11-08T12:26:55.557Z,5.82
2022-11-08T12:29:43.935Z,5.72
2022-11-08T12:32:10.948Z,6.20
2022-11-08T12:35:21.096Z,5.32
2022-11-08T12:38:05.890Z,6.47
2022-11-08T12:40:57.800Z,5.90
2022-11-08T12:43:45.462Z,6.82
2022-11-08T12:46:18.675Z,7.50
2022-11-08T12:49:00.753Z,10.98
2022-11-08T12:51:27.726Z,9.98
2022-11-08T12:54:14.836Z,10.30
2022-11-08T12:56:45.482Z,9.13
2022-11-08T12:59:28.186Z,10.40
2022-11-08T13:01:56.793Z,10.85
2022-11-08T13:04:26.640Z,10.48
2022-11-08T13:07:07.211Z,9.70
2022-11-08T13:10:09.828Z,10.27
2022-11-08T13:12:45.138Z,9.77
2022-11-08T13:18:19.538Z,9.63
2022-11-08T13:20:48.623Z,9.93
2022-11-08T13:23:41.886Z,9.25
2022-11-08T13:28:45.155Z,8.68
2022-11-08T13:31:23.551Z,9.70
2022-11-08T13:34:18.015Z,8.77
2022-11-08T13:36:54.423Z,9.15
2022-11-08T13:39:56.497Z,9.75
2022-11-08T13:42:23.417Z,9.70
2022-11-08T13:44:56.482Z,10.52
2022-11-08T13:47:32.539Z,10.93
2022-11-08T13:50:34.050Z,11.52
2022-11-08T13:53:19.098Z,10.27
2022-11-08T13:56:04.902Z,11.15
2022-11-08T13:58:39.167Z,10.25
2022-11-08T14:01:38.404Z,19.67
2022-11-08T14:04:34.954Z,20.30
2022-11-08T14:07:12.015Z,18.73
2022-11-08T14:09:41.857Z,20.70
2022-11-08T14:12:42.257Z,23.08
2022-11-08T14:15:50.761Z,24.95
2022-11-08T14:18:35.117Z,24.20
2022-11-08T14:21:05.377Z,23.70
2022-11-08T14:23:41.476Z,24.50
2022-11-08T14:26:20.440Z,24.20
2022-11-08T14:28:49.317Z,24.27
2022-11-08T14:31:30.610Z,22.88
2022-11-08T14:33:59.574Z,22.90
2022-11-08T14:36:28.633Z,24.90
2022-11-08T14:39:16.365Z,22.52
2022-11-08T14:41:48.470Z,23.83
2022-11-08T14:44:19.027Z,26.25
2022-11-08T14:46:47.855Z,26.05
2022-11-08T14:49:15.764Z,27.00
2022-11-08T14:51:43.798Z,26.88
2022-11-08T14:54:27.251Z,27.20
2022-11-08T14:56:56.061Z,24.67
2022-11-08T14:59:24.932Z,27.38
2022-11-08T15:01:52.266Z,26.63
2022-11-08T15:04:22.338Z,26.05
2022-11-08T15:06:53.208Z,27.80
2022-11-08T15:09:35.311Z,29.08
2022-11-08T15:12:05.692Z,28.33
2022-11-08T15:14:36.107Z,28.45
2022-11-08T15:17:03.807Z,29.85
2022-11-08T15:19:46.455Z,32.28
2022-11-08T15:22:30.439Z,33.85
2022-11-08T15:25:33.019Z,32.65
2022-11-08T15:28:15.769Z,31.90
2022-11-08T15:33:32.488Z,30.00
2022-11-08T15:36:00.105Z,33.83
2022-11-08T15:38:42.726Z,32.55
2022-11-08T15:41:36.927Z,33.78
2022-11-08T15:44:24.166Z,33.63
2022-11-08T15:46:53.253Z,33.25
2022-11-08T15:49:26.227Z,32.70
2022-11-08T15:54:23.178Z,31.30
2022-11-08T15:56:52.634Z,32.58
2022-11-08T15:59:30.468Z,33.25
2022-11-08T16:01:59.877Z,38.55
2022-11-08T16:04:28.977Z,37.22
2022-11-08T16:06:57.037Z,50.28
2022-11-08T16:09:24.224Z,48.63
2022-11-08T16:11:51.601Z,48.92
2022-11-08T16:14:22.870Z,53.53
2022-11-08T16:16:50.313Z,51.72
2022-11-08T16:19:20.029Z,47.17
2022-11-08T16:21:47.519Z,47.30
2022-11-08T16:24:14.640Z,48.67
2022-11-08T16:26:43.095Z,43.58
2022-11-08T16:29:31.545Z,44.08
2022-11-08T16:31:58.544Z,41.58
2022-11-08T16:34:25.552Z,44.17
2022-11-08T16:36:54.757Z,47.45
2022-11-08T16:39:26.923Z,48.10
2022-11-08T16:41:54.168Z,49.42
2022-11-08T16:44:21.223Z,50.13
2022-11-08T16:46:48.262Z,50.38
2022-11-08T16:49:24.290Z,48.70
2022-11-08T16:51:51.270Z,48.78
2022-11-08T16:54:20.715Z,51.05
2022-11-08T16:56:47.837Z,49.50
2022-11-08T16:59:15.731Z,46.80
2022-11-08T17:01:44.137Z,48.35
2022-11-08T17:04:11.360Z,60.53
2022-11-08T17:06:38.408Z,65.43
2022-11-08T17:09:05.824Z,60.70
2022-11-08T17:11:32.995Z,61.97
2022-11-08T17:13:59.986Z,60.28
2022-11-08T17:16:27.449Z,58.47
2022-11-08T17:18:54.537Z,53.55
2022-11-08T17:21:43.662Z,50.92
2022-11-08T17:24:09.669Z,46.22
2022-11-08T17:26:36.672Z,41.78
2022-11-08T17:29:03.790Z,38.63
2022-11-08T17:31:30.812Z,39.58
2022-11-08T17:33:57.784Z,37.95
2022-11-08T17:39:08.880Z,37.15
2022-11-08T17:41:36.103Z,38.65
2022-11-08T17:44:03.116Z,41.75
2022-11-08T17:46:30.154Z,40.28
2022-11-08T17:48:57.172Z,39.20
2022-11-08T17:51:24.408Z,39.88
2022-11-08T17:53:51.740Z,41.88
2022-11-08T17:56:19.524Z,41.55
2022-11-08T17:58:46.605Z,42.10
2022-11-08T18:01:14.349Z,43.10
2022-11-08T18:03:41.774Z,40.42
2022-11-08T18:06:12.114Z,43.00
2022-11-08T18:08:39.736Z,41.88
2022-11-08T18:11:07.158Z,41.28
2022-11-08T18:13:37.806Z,38.97
2022-11-08T18:16:12.401Z,36.90
2022-11-08T18:18:40.031Z,36.28
2022-11-08T18:21:07.945Z,40.15
2022-11-08T18:23:35.254Z,40.55
2022-11-08T18:26:02.670Z,42.72
2022-11-08T18:28:29.719Z,48.17
2022-11-08T18:31:02.958Z,48.25
2022-11-08T18:33:29.955Z,45.90
2022-11-08T18:35:56.940Z,43.55
2022-11-08T18:38:23.946Z,40.50
2022-11-08T18:40:50.937Z,42.67
2022-11-08T18:43:18.296Z,49.65
2022-11-08T18:45:45.714Z,54.20
2022-11-08T18:48:12.792Z,65.68
2022-11-08T18:50:39.781Z,61.20
2022-11-08T18:53:08.830Z,60.13
2022-11-08T18:55:36.257Z,60.42
2022-11-08T18:58:03.903Z,61.13
2022-11-08T19:00:30.981Z,57.65
2022-11-08T19:02:58.018Z,54.88
2022-11-08T19:05:25.101Z,51.28
2022-11-08T19:07:52.311Z,46.05
2022-11-08T19:10:19.812Z,43.20
2022-11-08T19:12:46.784Z,43.38
2022-11-08T19:15:14.680Z,42.10
2022-11-08T19:17:42.822Z,41.92
2022-11-08T19:20:10.375Z,39.72
2022-11-08T19:22:37.406Z,40.72
2022-11-08T19:25:04.728Z,38.40
2022-11-08T19:27:31.918Z,39.78
2022-11-08T19:30:00.650Z,40.60
2022-11-08T19:32:27.669Z,46.60
2022-11-08T19:34:54.681Z,47.45
2022-11-08T19:37:21.693Z,51.80
2022-11-08T19:39:49.084Z,56.55
2022-11-08T19:42:16.092Z,51.95
2022-11-08T19:44:43.144Z,48.45
2022-11-08T19:47:10.159Z,45.67
2022-11-08T19:49:41.009Z,50.67
2022-11-08T19:52:08.252Z,54.88
2022-11-08T19:54:35.559Z,56.38
2022-11-08T19:57:04.586Z,52.45
2022-11-08T19:59:32.427Z,47.38
2022-11-08T20:02:00.126Z,46.08
2022-11-08T20:04:27.424Z,45.88
2022-11-08T20:06:54.564Z,43.53
2022-11-08T20:09:25.952Z,41.42
2022-11-08T20:11:56.210Z,41.72
2022-11-08T20:14:23.700Z,38.13
2022-11-08T20:16:53.524Z,36.65
2022-11-08T20:19:21.220Z,37.45
2022-11-08T20:21:48.490Z,39.45
2022-11-08T20:24:16.651Z,38.20
2022-11-08T20:26:44.372Z,43.08
2022-11-08T20:29:11.977Z,43.47
2022-11-08T20:31:39.481Z,43.38
2022-11-08T20:34:11.879Z,45.67
2022-11-08T20:36:41.085Z,44.40
2022-11-08T20:39:08.367Z,43.55
2022-11-08T20:41:37.904Z,43.33
2022-11-08T20:44:06.477Z,38.08
2022-11-08T20:46:34.678Z,38.20
2022-11-08T20:49:02.586Z,37.15
2022-11-08T20:51:30.857Z,35.80
2022-11-08T20:54:00.591Z,35.38
2022-11-08T20:56:28.261Z,33.83
2022-11-08T20:59:02.832Z,33.03
2022-11-08T21:01:32.877Z,32.83
2022-11-08T21:04:01.255Z,31.80
2022-11-08T21:06:32.963Z,30.85
2022-11-08T21:09:14.381Z,32.03
2022-11-08T21:11:49.645Z,31.23
2022-11-08T21:14:16.841Z,32.70
2022-11-08T21:17:14.565Z,35.80
2022-11-08T21:19:30.950Z,35.42
2022-11-08T21:22:15.223Z,40.85
2022-11-08T21:24:43.636Z,42.35
2022-11-08T21:27:11.255Z,41.42
2022-11-08T21:29:38.961Z,39.97
2022-11-08T21:32:06.440Z,35.88
2022-11-08T21:34:33.554Z,37.92
2022-11-08T21:37:00.816Z,35.78
2022-11-08T21:39:27.921Z,33.78
2022-11-08T21:41:54.918Z,31.73
2022-11-08T21:44:22.054Z,32.72
2022-11-08T21:46:49.356Z,32.88
2022-11-08T21:49:16.383Z,33.55
2022-11-08T21:51:43.445Z,40.63
2022-11-08T21:54:10.546Z,40.53
2022-11-08T21:56:38.966Z,48.90
2022-11-08T21:59:06.225Z,36.05
2022-11-08T22:01:33.746Z,41.25
2022-11-08T22:04:00.844Z,35.83
2022-11-08T22:06:29.681Z,34.28
2022-11-08T22:08:56.863Z,32.80
2022-11-08T22:11:24.155Z,40.95
2022-11-08T22:13:51.277Z,42.30
2022-11-08T22:16:18.465Z,41.13
2022-11-08T22:21:39.507Z,34.92
2022-11-08T22:24:17.307Z,32.05
2022-11-08T22:26:44.781Z,36.20
2022-11-08T22:29:11.877Z,32.85
2022-11-08T22:31:39.241Z,31.98
2022-11-08T22:34:08.670Z,27.20
2022-11-08T22:36:41.469Z,26.25
2022-11-08T22:39:12.874Z,26.33
2022-11-08T22:41:39.930Z,26.95
2022-11-08T22:44:11.662Z,23.23
2022-11-08T22:46:39.893Z,25.83
2022-11-08T22:49:07.059Z,26.33
2022-11-08T22:51:34.071Z,22.02
2022-11-08T22:54:04.171Z,24.98
2022-11-08T22:56:37.901Z,26.40
2022-11-08T22:59:05.283Z,25.48
2022-11-08T23:01:32.601Z,23.88
2022-11-08T23:04:03.316Z,24.77
2022-11-08T23:06:30.818Z,26.35
2022-11-08T23:08:57.978Z,30.25
2022-11-08T23:11:43.807Z,29.60
2022-11-08T23:14:37.375Z,38.03
2022-11-08T23:17:07.613Z,60.67
2022-11-08T23:19:53.453Z,60.97
2022-11-08T23:22:39.782Z,61.97
2022-11-08T23:25:07.269Z,62.08
2022-11-08T23:27:52.895Z,57.85
2022-11-08T23:30:38.614Z,50.53
2022-11-08T23:33:09.521Z,53.65
2022-11-08T23:35:36.620Z,48.67
2022-11-08T23:38:03.767Z,37.72
2022-11-08T23:40:49.127Z,37.45
2022-11-08T23:43:37.221Z,41.03
2022-11-08T23:46:10.149Z,27.98
2022-11-08T23:48:38.552Z,23.65
2022-11-08T23:51:06.146Z,43.53
2022-11-08T23:53:37.123Z,44.42
2022-11-08T23:56:05.042Z,50.72
2022-11-08T23:58:32.644Z,51.83
